createdAt,value
2022-12-05T00:01:22.281Z,92.52
2022-12-05T00:03:50.763Z,92.43
2022-12-05T00:06:18.831Z,92.19
2022-12-05T00:08:46.232Z,91.78
2022-12-05T00:11:22.065Z,92.40
2022-12-05T00:13:51.890Z,93.34
2022-12-05T00:16:20.763Z,93.52
2022-12-05T00:18:47.563Z,93.32
2022-12-05T00:21:23.106Z,93.10
2022-12-05T00:23:51.052Z,92.48
2022-12-05T00:26:17.817Z,92.76
2022-12-05T00:28:44.635Z,93.50
2022-12-05T00:31:14.882Z,93.48
2022-12-05T00:33:41.780Z,93.59
2022-12-05T00:36:32.379Z,92.96
2022-12-05T00:39:01.396Z,93.49
2022-12-05T00:41:29.775Z,92.67
2022-12-05T00:43:59.269Z,92.50
2022-12-05T00:46:28.313Z,92.36
2022-12-05T00:48:56.379Z,92.07
2022-12-05T00:51:36.038Z,91.67
2022-12-05T00:54:05.631Z,91.59
2022-12-05T00:56:33.353Z,91.54
2022-12-05T00:59:01.471Z,91.34
2022-12-05T01:01:35.020Z,91.24
2022-12-05T01:04:05.816Z,91.38
2022-12-05T01:06:34.035Z,91.27
2022-12-05T01:09:01.343Z,90.85
2022-12-05T01:11:28.376Z,90.26
2022-12-05T01:13:55.799Z,90.80
2022-12-05T01:16:32.568Z,90.90
2022-12-05T01:19:02.781Z,90.92
2022-12-05T01:21:29.593Z,91.40
2022-12-05T01:23:56.874Z,91.36
2022-12-05T01:26:24.413Z,91.19
2022-12-05T01:28:51.964Z,91.83
2022-12-05T01:31:23.350Z,92.34
2022-12-05T01:33:51.039Z,92.40
2022-12-05T01:36:18.174Z,91.96
2022-12-05T01:38:45.175Z,91.65
2022-12-05T01:41:18.984Z,90.89
2022-12-05T01:44:02.785Z,90.76
2022-12-05T01:46:32.821Z,91.52
2022-12-05T01:49:04.205Z,91.34
2022-12-05T01:51:33.517Z,91.01
2022-12-05T01:54:01.418Z,91.64
2022-12-05T01:56:28.374Z,92.13
2022-12-05T01:58:56.132Z,92.43
2022-12-05T02:01:22.859Z,92.23
2022-12-05T02:03:52.789Z,92.13
2022-12-05T02:06:20.313Z,92.62
2022-12-05T02:08:47.220Z,91.65
2022-12-05T02:11:14.187Z,91.15
2022-12-05T02:13:55.006Z,91.64
2022-12-05T02:16:27.417Z,92.08
2022-12-05T02:19:35.582Z,92.16
2022-12-05T02:22:43.970Z,92.73
2022-12-05T02:25:30.184Z,90.26
2022-12-05T02:28:15.294Z,91.53
2022-12-05T02:30:50.529Z,93.66
2022-12-05T02:33:27.831Z,92.81
2022-12-05T02:36:07.502Z,94.39
2022-12-05T02:38:52.816Z,93.87
2022-12-05T02:41:23.173Z,94.09
2022-12-05T02:43:54.570Z,94.38
2022-12-05T02:46:23.617Z,93.85
2022-12-05T02:48:54.243Z,93.59
2022-12-05T02:51:24.120Z,92.60
2022-12-05T02:53:51.989Z,93.80
2022-12-05T02:56:19.492Z,94.58
2022-12-05T02:58:54.487Z,93.64
2022-12-05T03:01:24.958Z,94.45
2022-12-05T03:03:52.467Z,94.63
2022-12-05T03:06:33.156Z,92.06
2022-12-05T03:09:12.338Z,91.74
2022-12-05T03:11:47.213Z,91.83
2022-12-05T03:14:22.719Z,93.64
2022-12-05T03:16:52.515Z,95.29
2022-12-05T03:19:32.665Z,95.00
2022-12-05T03:22:03.082Z,92.60
2022-12-05T03:24:33.229Z,92.93
2022-12-05T03:27:23.962Z,94.01
2022-12-05T03:30:14.524Z,95.06
2022-12-05T03:33:05.745Z,95.70
2022-12-05T03:35:53.105Z,96.94
2022-12-05T03:38:30.621Z,97.07
2022-12-05T03:41:17.538Z,98.25
2022-12-05T03:44:01.097Z,99.43
2022-12-05T03:46:34.428Z,100.00
2022-12-05T03:49:07.886Z,100.00
2022-12-05T03:51:39.964Z,100.00
2022-12-05T03:54:26.577Z,98.11
2022-12-05T03:57:15.094Z,94.09
2022-12-05T03:59:50.817Z,94.22
2022-12-05T04:02:28.458Z,96.28
2022-12-05T04:05:02.740Z,97.58
2022-12-05T04:07:32.632Z,97.61
2022-12-05T04:10:08.660Z,99.24
2022-12-05T04:12:36.861Z,99.61
2022-12-05T04:15:14.670Z,97.94
2022-12-05T04:17:58.594Z,95.71
2022-12-05T04:20:53.675Z,94.69
2022-12-05T04:23:20.783Z,95.60
2022-12-05T04:26:28.458Z,96.28
2022-12-05T04:29:07.311Z,96.57
2022-12-05T04:31:48.313Z,95.59
2022-12-05T04:34:15.887Z,96.63
2022-12-05T04:36:47.376Z,94.88
2022-12-05T04:39:29.133Z,93.82
2022-12-05T04:42:00.579Z,94.94
2022-12-05T04:44:33.378Z,96.61
2022-12-05T04:47:03.666Z,95.10
2022-12-05T04:49:32.948Z,96.60
2022-12-05T04:52:04.114Z,96.69
2022-12-05T04:55:09.219Z,93.21
2022-12-05T04:57:54.651Z,92.78
2022-12-05T05:00:21.337Z,93.35
2022-12-05T05:02:54.684Z,94.43
2022-12-05T05:05:23.227Z,95.26
2022-12-05T05:07:53.502Z,95.31
2022-12-05T05:10:26.858Z,93.38
2022-12-05T05:12:53.737Z,92.51
2022-12-05T05:15:20.373Z,93.52
2022-12-05T05:17:46.990Z,92.93
2022-12-05T05:20:28.072Z,91.24
2022-12-05T05:22:56.795Z,93.60
2022-12-05T05:25:24.634Z,94.04
2022-12-05T05:27:53.320Z,94.20
2022-12-05T05:30:22.564Z,93.45
2022-12-05T05:32:49.519Z,89.38
2022-12-05T05:35:17.088Z,89.78
2022-12-05T05:37:44.074Z,88.90
2022-12-05T05:40:13.025Z,90.68
2022-12-05T05:42:47.702Z,90.74
2022-12-05T05:45:15.541Z,92.05
2022-12-05T05:47:45.879Z,89.79
2022-12-05T05:50:17.934Z,90.71
2022-12-05T05:52:48.436Z,90.88
2022-12-05T05:55:16.828Z,91.79
2022-12-05T05:57:43.876Z,93.68
2022-12-05T06:00:11.462Z,94.61
2022-12-05T06:02:38.443Z,95.18
2022-12-05T06:05:06.051Z,94.74
2022-12-05T06:07:33.335Z,90.14
2022-12-05T06:10:00.361Z,89.76
2022-12-05T06:12:27.372Z,91.16
2022-12-05T06:14:54.252Z,91.67
2022-12-05T06:17:21.053Z,92.79
2022-12-05T06:19:47.693Z,92.90
2022-12-05T06:22:14.440Z,94.31
2022-12-05T06:24:41.360Z,93.57
2022-12-05T06:27:10.848Z,93.09
2022-12-05T06:29:37.829Z,92.65
2022-12-05T06:32:04.796Z,93.20
2022-12-05T06:34:32.749Z,93.54
2022-12-05T06:37:00.076Z,96.20
2022-12-05T06:39:27.257Z,95.19
2022-12-05T06:41:54.052Z,93.86
2022-12-05T06:44:21.889Z,93.09
2022-12-05T06:46:49.072Z,93.30
2022-12-05T06:49:15.736Z,95.24
2022-12-05T06:51:42.408Z,95.80
2022-12-05T06:54:11.181Z,95.41
2022-12-05T06:56:37.882Z,94.89
2022-12-05T06:59:04.599Z,94.17
2022-12-05T07:01:43.681Z,94.91
2022-12-05T07:04:16.995Z,96.22
2022-12-05T07:06:50.171Z,95.06
2022-12-05T07:09:20.588Z,95.42
2022-12-05T07:11:49.074Z,95.20
2022-12-05T07:14:38.889Z,95.40
2022-12-05T07:17:03.615Z,95.81
2022-12-05T07:19:30.447Z,95.67
2022-12-05T07:21:57.101Z,95.61
2022-12-05T07:24:23.760Z,95.31
2022-12-05T07:26:50.500Z,95.72
2022-12-05T07:29:17.255Z,95.88
2022-12-05T07:31:44.755Z,96.54
2022-12-05T07:34:11.759Z,96.79
2022-12-05T07:36:38.522Z,96.33
2022-12-05T07:39:05.386Z,96.29
2022-12-05T07:41:33.234Z,95.07
2022-12-05T07:44:05.709Z,95.78
2022-12-05T07:46:32.552Z,97.28
2022-12-05T07:48:59.421Z,97.27
2022-12-05T07:51:26.057Z,96.13
2022-12-05T07:53:52.821Z,94.31
2022-12-05T07:56:19.878Z,95.07
2022-12-05T07:58:49.149Z,95.95
2022-12-05T08:01:18.908Z,97.19
2022-12-05T08:03:46.832Z,96.04
2022-12-05T08:06:22.561Z,97.11
2022-12-05T08:08:50.072Z,95.18
2022-12-05T08:11:25.768Z,95.97
2022-12-05T08:13:53.538Z,94.35
2022-12-05T08:16:23.281Z,95.85
2022-12-05T08:19:02.242Z,94.22
2022-12-05T08:21:29.206Z,93.82
2022-12-05T08:23:56.386Z,91.97
2022-12-05T08:26:28.270Z,93.69
2022-12-05T08:29:02.408Z,94.96
2022-12-05T08:31:31.068Z,94.84
2022-12-05T08:33:59.857Z,96.16
2022-12-05T08:36:31.322Z,94.73
2022-12-05T08:39:00.185Z,96.11
2022-12-05T08:41:29.077Z,96.61
2022-12-05T08:43:57.115Z,97.79
2022-12-05T08:46:24.005Z,95.31
2022-12-05T08:48:53.115Z,93.74
2022-12-05T08:51:19.797Z,92.14
2022-12-05T08:53:46.553Z,92.57
2022-12-05T08:56:13.768Z,93.98
2022-12-05T08:58:41.162Z,94.72
2022-12-05T09:01:16.282Z,94.07
2022-12-05T09:03:47.791Z,92.92
2022-12-05T09:06:21.144Z,93.78
2022-12-05T09:08:48.880Z,94.22
2022-12-05T09:11:18.356Z,94.55
2022-12-05T09:13:46.293Z,92.77
2022-12-05T09:16:20.753Z,93.88
2022-12-05T09:18:48.819Z,94.42
2022-12-05T09:21:27.169Z,94.05
2022-12-05T09:23:54.441Z,89.84
2022-12-05T09:26:24.587Z,91.26
2022-12-05T09:28:52.383Z,92.85
2022-12-05T09:31:21.647Z,90.36
2022-12-05T09:33:49.844Z,90.44
2022-12-05T09:36:23.017Z,90.84
2022-12-05T09:38:50.243Z,93.86
2022-12-05T09:41:54.362Z,94.09
2022-12-05T09:44:43.910Z,94.76
2022-12-05T09:47:19.785Z,94.18
2022-12-05T09:50:04.823Z,94.00
2022-12-05T09:52:36.458Z,93.76
2022-12-05T09:55:10.801Z,94.22
2022-12-05T09:57:44.389Z,93.18
2022-12-05T10:00:11.847Z,93.60
2022-12-05T10:02:52.096Z,90.69
2022-12-05T10:05:27.689Z,90.93
2022-12-05T10:08:32.855Z,91.28
2022-12-05T10:11:14.563Z,91.07
2022-12-05T10:13:55.787Z,92.20
2022-12-05T10:16:38.468Z,91.59
2022-12-05T10:19:16.060Z,92.94
2022-12-05T10:22:01.248Z,89.67
2022-12-05T10:24:41.294Z,89.22
2022-12-05T10:27:16.331Z,90.77
2022-12-05T10:29:52.025Z,93.05
2022-12-05T10:32:33.136Z,92.45
2022-12-05T10:35:14.149Z,92.17
2022-12-05T10:37:45.464Z,92.47
2022-12-05T10:40:13.609Z,92.45
2022-12-05T10:42:40.388Z,89.33
2022-12-05T10:45:14.352Z,89.92
2022-12-05T10:47:41.024Z,91.28
2022-12-05T10:50:30.057Z,91.69
2022-12-05T10:52:59.223Z,92.18
2022-12-05T10:55:34.930Z,89.09
2022-12-05T10:58:23.986Z,89.01
2022-12-05T11:01:10.082Z,89.51
2022-12-05T11:03:40.200Z,89.57
2022-12-05T11:06:28.650Z,90.42
2022-12-05T11:09:05.776Z,89.58
2022-12-05T11:11:33.846Z,91.18
2022-12-05T11:14:22.818Z,91.28
2022-12-05T11:16:58.249Z,92.44
2022-12-05T11:19:28.934Z,92.23
2022-12-05T11:21:55.985Z,91.89
2022-12-05T11:24:32.587Z,92.65
2022-12-05T11:27:21.043Z,91.48
2022-12-05T11:30:15.105Z,91.11
2022-12-05T11:32:41.716Z,91.97
2022-12-05T11:35:11.353Z,90.68
2022-12-05T11:37:53.251Z,90.51
2022-12-05T11:40:52.806Z,88.52
2022-12-05T11:43:50.435Z,91.68
2022-12-05T11:46:27.015Z,94.36
2022-12-05T11:49:33.651Z,91.06
2022-12-05T11:52:02.969Z,89.71
2022-12-05T11:57:38.108Z,92.72
2022-12-05T12:00:08.026Z,93.11
2022-12-05T12:03:07.994Z,91.50
2022-12-05T12:05:41.342Z,88.88
2022-12-05T12:08:28.436Z,88.93
2022-12-05T12:11:12.869Z,90.96
2022-12-05T12:14:02.418Z,91.73
2022-12-05T12:17:07.630Z,93.09
2022-12-05T12:20:00.023Z,89.73
2022-12-05T12:22:34.796Z,88.68
2022-12-05T12:25:29.624Z,89.68
2022-12-05T12:28:21.211Z,91.31
2022-12-05T12:30:56.110Z,89.78
2022-12-05T12:33:38.063Z,90.94
2022-12-05T12:36:22.285Z,90.27
2022-12-05T12:39:21.946Z,87.61
2022-12-05T12:42:18.580Z,88.48
2022-12-05T12:44:53.909Z,90.31
2022-12-05T12:47:44.920Z,88.49
2022-12-05T12:50:20.766Z,89.57
2022-12-05T12:53:06.156Z,88.89
2022-12-05T12:55:48.646Z,88.92
2022-12-05T12:58:42.494Z,89.87
2022-12-05T13:01:45.262Z,88.74
2022-12-05T13:04:17.414Z,87.48
2022-12-05T13:06:54.953Z,87.31
2022-12-05T13:09:24.318Z,87.95
2022-12-05T13:11:53.430Z,86.92
2022-12-05T13:14:25.104Z,87.51
2022-12-05T13:16:54.713Z,86.75
2022-12-05T13:19:45.165Z,86.48
2022-12-05T13:22:13.470Z,87.60
2022-12-05T13:24:41.393Z,85.81
2022-12-05T13:27:15.337Z,84.22
2022-12-05T13:30:01.347Z,84.29
2022-12-05T13:32:40.826Z,85.13
2022-12-05T13:35:53.701Z,84.06
2022-12-05T13:38:48.196Z,84.08
2022-12-05T13:41:35.279Z,83.37
2022-12-05T13:44:11.957Z,82.59
2022-12-05T13:46:42.835Z,82.78
2022-12-05T13:49:30.332Z,82.14
2022-12-05T13:52:07.874Z,82.23
2022-12-05T13:54:42.364Z,81.33
2022-12-05T13:57:37.904Z,81.44
2022-12-05T14:00:21.552Z,79.86
2022-12-05T14:02:51.339Z,80.45
2022-12-05T14:05:21.187Z,78.83
2022-12-05T14:07:53.167Z,79.18
2022-12-05T14:10:28.968Z,79.10
2022-12-05T14:13:19.697Z,78.48
2022-12-05T14:15:47.115Z,77.10
2022-12-05T14:18:44.666Z,76.59
2022-12-05T14:21:22.535Z,76.30
2022-12-05T14:24:01.377Z,77.18
2022-12-05T14:26:52.565Z,76.70
2022-12-05T14:29:38.808Z,76.68
2022-12-05T14:32:14.638Z,75.62
2022-12-05T14:34:55.113Z,74.65
2022-12-05T14:37:39.875Z,75.47
2022-12-05T14:40:32.310Z,75.17
2022-12-05T14:43:02.966Z,74.98
2022-12-05T14:45:32.463Z,75.61
2022-12-05T14:48:02.027Z,75.70
2022-12-05T14:50:38.330Z,75.63
2022-12-05T14:53:32.593Z,75.29
2022-12-05T14:56:06.301Z,75.32
2022-12-05T14:59:05.228Z,75.87
2022-12-05T15:01:40.537Z,75.86
2022-12-05T15:04:22.567Z,76.84
2022-12-05T15:06:55.231Z,76.85
2022-12-05T15:09:45.625Z,76.42
2022-12-05T15:12:15.163Z,76.42
2022-12-05T15:15:02.936Z,75.96
2022-12-05T15:17:39.525Z,76.68
2022-12-05T15:20:15.326Z,76.76
2022-12-05T15:22:42.477Z,76.10
2022-12-05T15:25:31.252Z,77.03
2022-12-05T15:28:05.214Z,77.42
2022-12-05T15:30:36.116Z,76.55
2022-12-05T15:33:02.895Z,76.67
2022-12-05T15:35:33.865Z,76.47
2022-12-05T15:38:06.371Z,77.52
2022-12-05T15:40:38.520Z,77.15
2022-12-05T15:43:31.703Z,77.19
2022-12-05T15:46:24.493Z,77.80
2022-12-05T15:48:56.936Z,77.58
2022-12-05T15:51:34.371Z,78.72
2022-12-05T15:54:11.782Z,77.69
2022-12-05T15:56:52.730Z,77.24
2022-12-05T15:59:26.162Z,77.04
2022-12-05T16:01:59.690Z,77.84
2022-12-05T16:04:37.655Z,77.61
2022-12-05T16:07:09.577Z,76.71
2022-12-05T16:09:41.955Z,76.80
2022-12-05T16:12:26.087Z,77.11
2022-12-05T16:15:01.012Z,77.51
2022-12-05T16:17:40.723Z,76.08
2022-12-05T16:20:12.778Z,75.78
2022-12-05T16:22:54.282Z,75.17
2022-12-05T16:25:27.666Z,75.20
2022-12-05T16:28:07.382Z,75.63
2022-12-05T16:30:35.208Z,75.88
2022-12-05T16:33:05.518Z,74.83
2022-12-05T16:35:40.234Z,74.23
2022-12-05T16:38:11.947Z,74.66
2022-12-05T16:40:41.313Z,75.61
2022-12-05T16:43:20.990Z,75.89
2022-12-05T16:45:49.598Z,74.28
2022-12-05T16:48:29.200Z,73.44
2022-12-05T16:51:11.087Z,74.80
2022-12-05T16:53:39.373Z,74.80
2022-12-05T16:56:12.162Z,75.70
2022-12-05T16:58:39.122Z,76.23
2022-12-05T17:01:07.773Z,76.43
2022-12-05T17:03:35.802Z,76.54
2022-12-05T17:06:03.608Z,76.42
2022-12-05T17:08:30.716Z,76.33
2022-12-05T17:10:58.255Z,75.84
2022-12-05T17:13:25.321Z,75.64
2022-12-05T17:15:52.160Z,75.01
2022-12-05T17:18:21.393Z,73.88
2022-12-05T17:20:56.209Z,74.08
2022-12-05T17:23:22.862Z,75.27
2022-12-05T17:25:52.685Z,74.63
2022-12-05T17:28:21.970Z,74.79
2022-12-05T17:30:48.795Z,73.50
2022-12-05T17:33:17.293Z,74.79
2022-12-05T17:35:44.792Z,74.77
2022-12-05T17:38:11.666Z,75.05
2022-12-05T17:40:38.947Z,74.63
2022-12-05T17:43:06.285Z,74.44
2022-12-05T17:45:33.576Z,73.62
2022-12-05T17:48:00.397Z,72.53
2022-12-05T17:50:27.943Z,73.78
2022-12-05T17:52:56.779Z,73.94
2022-12-05T17:55:26.601Z,74.70
2022-12-05T17:57:54.079Z,73.70
2022-12-05T18:00:22.179Z,72.21
2022-12-05T18:02:50.077Z,71.27
2022-12-05T18:05:17.521Z,70.94
2022-12-05T18:07:45.221Z,71.18
2022-12-05T18:10:15.861Z,72.41
2022-12-05T18:12:43.005Z,72.57
2022-12-05T18:15:10.309Z,73.27
2022-12-05T18:17:37.117Z,72.54
2022-12-05T18:20:04.865Z,74.83
2022-12-05T18:22:31.683Z,75.21
2022-12-05T18:24:58.870Z,76.17
2022-12-05T18:27:26.376Z,76.39
2022-12-05T18:29:53.618Z,73.70
2022-12-05T18:32:20.523Z,72.46
2022-12-05T18:34:47.223Z,72.76
2022-12-05T18:37:16.281Z,72.63
2022-12-05T18:39:42.985Z,74.24
2022-12-05T18:42:15.005Z,74.13
2022-12-05T18:44:42.514Z,72.91
2022-12-05T18:47:09.218Z,72.46
2022-12-05T18:49:35.991Z,73.79
2022-12-05T18:52:02.661Z,72.84
2022-12-05T18:54:29.239Z,73.74
2022-12-05T18:56:55.866Z,74.40
2022-12-05T18:59:22.696Z,75.13
2022-12-05T19:01:50.491Z,74.35
2022-12-05T19:04:20.516Z,74.12
2022-12-05T19:06:53.737Z,73.63
2022-12-05T19:09:23.259Z,73.30
2022-12-05T19:11:54.892Z,74.39
2022-12-05T19:14:21.854Z,74.64
2022-12-05T19:16:54.956Z,74.26
2022-12-05T19:19:25.042Z,74.11
2022-12-05T19:21:53.499Z,74.74
2022-12-05T19:24:20.730Z,74.63
2022-12-05T19:26:49.146Z,75.56
2022-12-05T19:29:16.609Z,74.41
2022-12-05T19:31:43.986Z,74.59
2022-12-05T19:34:10.860Z,75.23
2022-12-05T19:36:43.602Z,76.44
2022-12-05T19:39:15.036Z,76.31
2022-12-05T19:41:42.390Z,75.82
2022-12-05T19:44:09.749Z,75.13
2022-12-05T19:46:36.935Z,74.46
2022-12-05T19:49:14.426Z,72.67
2022-12-05T19:51:41.398Z,72.75
2022-12-05T19:54:09.260Z,73.26
2022-12-05T19:56:37.427Z,73.03
2022-12-05T19:59:06.091Z,74.54
2022-12-05T20:01:38.699Z,73.25
2022-12-05T20:04:14.401Z,72.79
2022-12-05T20:06:46.944Z,73.00
2022-12-05T20:09:15.936Z,73.21
2022-12-05T20:11:46.237Z,73.86
2022-12-05T20:14:17.875Z,73.73
2022-12-05T20:16:44.702Z,75.14
2022-12-05T20:19:11.443Z,74.75
2022-12-05T20:21:44.436Z,74.20
2022-12-05T20:24:11.871Z,75.47
2022-12-05T20:26:43.929Z,75.08
2022-12-05T20:29:10.947Z,76.06
2022-12-05T20:31:40.317Z,76.70
2022-12-05T20:34:13.571Z,75.51
2022-12-05T20:36:41.152Z,75.56
2022-12-05T20:39:12.487Z,74.26
2022-12-05T20:41:39.204Z,74.89
2022-12-05T20:44:08.051Z,74.16
2022-12-05T20:46:36.563Z,74.11
2022-12-05T20:49:03.708Z,75.05
2022-12-05T20:51:32.372Z,75.71
2022-12-05T20:54:01.048Z,75.62
2022-12-05T20:56:30.249Z,76.25
2022-12-05T20:58:59.682Z,75.68
2022-12-05T21:01:28.881Z,77.24
2022-12-05T21:03:56.257Z,77.08
2022-12-05T21:06:34.561Z,76.38
2022-12-05T21:09:03.218Z,74.57
2022-12-05T21:11:31.948Z,75.52
2022-12-05T21:14:00.379Z,75.61
2022-12-05T21:16:28.118Z,75.83
2022-12-05T21:18:56.051Z,76.79
2022-12-05T21:21:24.877Z,78.26
2022-12-05T21:23:57.907Z,78.31
2022-12-05T21:26:26.732Z,77.06
2022-12-05T21:28:54.442Z,77.18
2022-12-05T21:31:23.829Z,78.32
2022-12-05T21:33:53.414Z,79.21
2022-12-05T21:36:21.036Z,79.98
2022-12-05T21:38:52.363Z,79.65
2022-12-05T21:41:22.923Z,78.82
2022-12-05T21:43:54.018Z,79.20
2022-12-05T21:46:22.111Z,79.01
2022-12-05T21:48:49.265Z,78.33
2022-12-05T21:51:15.888Z,79.17
2022-12-05T21:53:42.830Z,79.15
2022-12-05T21:56:12.337Z,79.77
2022-12-05T21:58:42.322Z,79.91
2022-12-05T22:01:19.683Z,78.26
2022-12-05T22:03:46.918Z,78.74
2022-12-05T22:06:15.258Z,78.40
2022-12-05T22:08:42.841Z,78.82
2022-12-05T22:11:15.971Z,78.49
2022-12-05T22:13:44.175Z,78.99
2022-12-05T22:16:12.613Z,78.85
2022-12-05T22:18:39.829Z,79.46
2022-12-05T22:21:18.399Z,80.05
2022-12-05T22:23:46.974Z,80.09
2022-12-05T22:26:22.402Z,79.74
2022-12-05T22:28:54.212Z,81.02
2022-12-05T22:31:22.083Z,80.75
2022-12-05T22:33:49.279Z,82.78
2022-12-05T22:36:18.336Z,82.21
2022-12-05T22:38:47.444Z,81.56
2022-12-05T22:41:17.332Z,81.43
2022-12-05T22:43:45.539Z,81.06
2022-12-05T22:46:17.861Z,81.17
2022-12-05T22:48:46.152Z,80.20
2022-12-05T22:51:13.748Z,77.84
2022-12-05T22:53:40.857Z,80.11
2022-12-05T22:56:10.302Z,81.02
2022-12-05T22:58:38.039Z,80.05
2022-12-05T23:01:15.974Z,78.77
2022-12-05T23:03:44.983Z,79.47
2022-12-05T23:06:13.022Z,80.55
2022-12-05T23:08:41.823Z,81.88
2022-12-05T23:11:09.783Z,82.56
2022-12-05T23:13:37.519Z,81.61
2022-12-05T23:16:10.157Z,80.41
2022-12-05T23:18:46.976Z,81.24
2022-12-05T23:21:21.352Z,80.63
2022-12-05T23:23:53.448Z,80.86
2022-12-05T23:26:22.783Z,81.51
2022-12-05T23:28:50.124Z,81.41
2022-12-05T23:31:17.815Z,81.73
2022-12-05T23:33:44.781Z,82.17
2022-12-05T23:36:13.074Z,80.01
2022-12-05T23:38:41.732Z,82.02
2022-12-05T23:41:17.706Z,81.89
2022-12-05T23:43:44.819Z,82.72
2022-12-05T23:46:13.211Z,85.08
2022-12-05T23:48:42.458Z,83.06
2022-12-05T23:51:21.518Z,83.03
2022-12-05T23:53:52.971Z,82.01
2022-12-05T23:56:22.745Z,81.08
2022-12-05T23:58:49.430Z,80.89
